sensor_id;sensor_type;location;lat;lon;timestamp;temperature;humidity
7576;DHT22;3829;50.798;4.358;2022-12-13T00:00:41;-1.60;99.90
7576;DHT22;3829;50.798;4.358;2022-12-13T00:03:06;-1.60;99.90
7576;DHT22;3829;50.798;4.358;2022-12-13T00:05:32;-1.50;99.90
7576;DHT22;3829;50.798;4.358;2022-12-13T00:07:59;-1.60;99.90
7576;DHT22;3829;50.798;4.358;2022-12-13T00:10:24;-1.60;99.90
7576;DHT22;3829;50.798;4.358;2022-12-13T00:12:50;-1.60;99.90
7576;DHT22;3829;50.798;4.358;2022-12-13T00:15:15;-1.70;99.90
7576;DHT22;3829;50.798;4.358;2022-12-13T00:17:41;-1.70;99.90
7576;DHT22;3829;50.798;4.358;2022-12-13T00:20:07;-1.80;99.90
7576;DHT22;3829;50.798;4.358;2022-12-13T00:22:33;-1.80;99.90
7576;DHT22;3829;50.798;4.358;2022-12-13T00:24:58;-1.80;99.90
7576;DHT22;3829;50.798;4.358;2022-12-13T00:27:24;-1.80;99.90
7576;DHT22;3829;50.798;4.358;2022-12-13T00:29:50;-1.80;99.90
7576;DHT22;3829;50.798;4.358;2022-12-13T00:32:15;-1.80;99.90
7576;DHT22;3829;50.798;4.358;2022-12-13T00:34:41;-1.80;99.90
7576;DHT22;3829;50.798;4.358;2022-12-13T00:37:07;-1.80;99.90
7576;DHT22;3829;50.798;4.358;2022-12-13T00:39:32;-1.80;99.90
7576;DHT22;3829;50.798;4.358;2022-12-13T00:41:58;-1.80;99.90
7576;DHT22;3829;50.798;4.358;2022-12-13T00:44:24;-1.60;99.90
7576;DHT22;3829;50.798;4.358;2022-12-13T00:46:50;-1.70;99.90
7576;DHT22;3829;50.798;4.358;2022-12-13T00:49:16;-1.70;99.90
7576;DHT22;3829;50.798;4.358;2022-12-13T00:51:42;-1.70;99.90
7576;DHT22;3829;50.798;4.358;2022-12-13T00:54:09;-1.70;99.90
7576;DHT22;3829;50.798;4.358;2022-12-13T00:56:36;-1.70;99.90
7576;DHT22;3829;50.798;4.358;2022-12-13T00:59:02;-1.70;99.90
7576;DHT22;3829;50.798;4.358;2022-12-13T01:01:30;-1.70;99.90
7576;DHT22;3829;50.798;4.358;2022-12-13T01:03:58;-1.80;99.90
7576;DHT22;3829;50.798;4.358;2022-12-13T01:06:40;-1.60;99.90
7576;DHT22;3829;50.798;4.358;2022-12-13T01:09:15;-1.70;99.90
7576;DHT22;3829;50.798;4.358;2022-12-13T01:11:42;-1.80;99.90
7576;DHT22;3829;50.798;4.358;2022-12-13T01:14:07;-1.70;99.90
7576;DHT22;3829;50.798;4.358;2022-12-13T01:16:33;-1.80;99.90
7576;DHT22;3829;50.798;4.358;2022-12-13T01:18:58;-1.70;99.90
7576;DHT22;3829;50.798;4.358;2022-12-13T01:21:25;-1.70;99.90
7576;DHT22;3829;50.798;4.358;2022-12-13T01:23:50;-1.80;99.90
7576;DHT22;3829;50.798;4.358;2022-12-13T01:26:18;-1.70;99.90
7576;DHT22;3829;50.798;4.358;2022-12-13T01:28:44;-1.80;99.90
7576;DHT22;3829;50.798;4.358;2022-12-13T01:31:12;-1.80;99.90
7576;DHT22;3829;50.798;4.358;2022-12-13T01:33:39;-1.80;99.90
7576;DHT22;3829;50.798;4.358;2022-12-13T01:36:07;-1.80;99.90
7576;DHT22;3829;50.798;4.358;2022-12-13T01:38:34;-1.70;99.90
7576;DHT22;3829;50.798;4.358;2022-12-13T01:40:59;-1.70;99.90
7576;DHT22;3829;50.798;4.358;2022-12-13T01:46:06;-1.80;99.90
7576;DHT22;3829;50.798;4.358;2022-12-13T01:48:38;-1.80;99.90
7576;DHT22;3829;50.798;4.358;2022-12-13T01:51:06;-1.80;99.90
7576;DHT22;3829;50.798;4.358;2022-12-13T01:53:35;-1.90;99.90
7576;DHT22;3829;50.798;4.358;2022-12-13T01:56:11;-1.80;99.90
7576;DHT22;3829;50.798;4.358;2022-12-13T01:58:39;-1.80;99.90
7576;DHT22;3829;50.798;4.358;2022-12-13T02:01:05;-1.80;99.90
7576;DHT22;3829;50.798;4.358;2022-12-13T02:03:32;-1.80;99.90
7576;DHT22;3829;50.798;4.358;2022-12-13T02:06:12;-1.80;99.90
7576;DHT22;3829;50.798;4.358;2022-12-13T02:08:40;-1.80;99.90
7576;DHT22;3829;50.798;4.358;2022-12-13T02:11:08;-1.70;99.90
7576;DHT22;3829;50.798;4.358;2022-12-13T02:13:35;-1.80;99.90
7576;DHT22;3829;50.798;4.358;2022-12-13T02:21:38;-1.70;99.90
7576;DHT22;3829;50.798;4.358;2022-12-13T02:24:25;-1.80;99.90
7576;DHT22;3829;50.798;4.358;2022-12-13T02:26:58;-1.70;99.90
7576;DHT22;3829;50.798;4.358;2022-12-13T02:32:16;-1.70;99.90
7576;DHT22;3829;50.798;4.358;2022-12-13T02:34:45;-1.70;99.90
7576;DHT22;3829;50.798;4.358;2022-12-13T02:37:32;-1.70;99.90
7576;DHT22;3829;50.798;4.358;2022-12-13T02:40:10;-1.70;99.90
7576;DHT22;3829;50.798;4.358;2022-12-13T02:43:03;-1.80;99.90
7576;DHT22;3829;50.798;4.358;2022-12-13T02:45:39;-1.70;99.90
7576;DHT22;3829;50.798;4.358;2022-12-13T02:48:11;-1.80;99.90
7576;DHT22;3829;50.798;4.358;2022-12-13T02:50:38;-1.80;99.90
7576;DHT22;3829;50.798;4.358;2022-12-13T02:53:06;-1.80;99.90
7576;DHT22;3829;50.798;4.358;2022-12-13T02:55:32;-1.80;99.90
7576;DHT22;3829;50.798;4.358;2022-12-13T02:58:00;-1.80;99.90
7576;DHT22;3829;50.798;4.358;2022-12-13T03:03:31;-1.80;99.90
7576;DHT22;3829;50.798;4.358;2022-12-13T03:06:03;-1.90;99.90
7576;DHT22;3829;50.798;4.358;2022-12-13T03:09:17;-1.80;99.90
7576;DHT22;3829;50.798;4.358;2022-12-13T03:15:26;-2.00;99.90
7576;DHT22;3829;50.798;4.358;2022-12-13T03:17:57;-1.90;99.90
7576;DHT22;3829;50.798;4.358;2022-12-13T03:20:27;-1.90;99.90
7576;DHT22;3829;50.798;4.358;2022-12-13T03:22:54;-2.00;99.90
7576;DHT22;3829;50.798;4.358;2022-12-13T03:25:22;-1.90;99.90
7576;DHT22;3829;50.798;4.358;2022-12-13T03:27:48;-1.90;99.90
7576;DHT22;3829;50.798;4.358;2022-12-13T03:30:14;-2.00;99.90
7576;DHT22;3829;50.798;4.358;2022-12-13T03:32:39;-1.90;99.90
7576;DHT22;3829;50.798;4.358;2022-12-13T03:35:05;-1.90;99.90
7576;DHT22;3829;50.798;4.358;2022-12-13T03:37:31;-1.90;99.90
7576;DHT22;3829;50.798;4.358;2022-12-13T03:39:57;-1.90;99.90
7576;DHT22;3829;50.798;4.358;2022-12-13T03:42:23;-1.90;99.90
7576;DHT22;3829;50.798;4.358;2022-12-13T03:44:49;-1.80;99.90
7576;DHT22;3829;50.798;4.358;2022-12-13T03:47:15;-1.80;99.90
7576;DHT22;3829;50.798;4.358;2022-12-13T03:49:41;-1.90;99.90
7576;DHT22;3829;50.798;4.358;2022-12-13T03:52:07;-1.80;99.90
7576;DHT22;3829;50.798;4.358;2022-12-13T03:54:32;-1.80;99.90
7576;DHT22;3829;50.798;4.358;2022-12-13T03:56:58;-1.90;99.90
7576;DHT22;3829;50.798;4.358;2022-12-13T03:59:24;-1.80;99.90
7576;DHT22;3829;50.798;4.358;2022-12-13T04:01:49;-1.80;99.90
7576;DHT22;3829;50.798;4.358;2022-12-13T04:04:15;-1.80;99.90
7576;DHT22;3829;50.798;4.358;2022-12-13T04:06:41;-1.90;99.90
7576;DHT22;3829;50.798;4.358;2022-12-13T04:09:06;-1.90;99.90
7576;DHT22;3829;50.798;4.358;2022-12-13T04:11:32;-1.90;99.90
7576;DHT22;3829;50.798;4.358;2022-12-13T04:14:16;-1.90;99.90
7576;DHT22;3829;50.798;4.358;2022-12-13T04:16:41;-1.90;99.90
7576;DHT22;3829;50.798;4.358;2022-12-13T04:19:07;-1.90;99.90
7576;DHT22;3829;50.798;4.358;2022-12-13T04:21:33;-1.90;99.90
7576;DHT22;3829;50.798;4.358;2022-12-13T04:23:58;-2.00;99.90
7576;DHT22;3829;50.798;4.358;2022-12-13T04:26:24;-1.90;99.90
7576;DHT22;3829;50.798;4.358;2022-12-13T04:28:49;-1.90;99.90
7576;DHT22;3829;50.798;4.358;2022-12-13T04:31:15;-2.00;99.90
7576;DHT22;3829;50.798;4.358;2022-12-13T04:33:40;-2.10;99.90
7576;DHT22;3829;50.798;4.358;2022-12-13T04:36:06;-2.10;99.90
7576;DHT22;3829;50.798;4.358;2022-12-13T04:38:32;-2.10;99.90
7576;DHT22;3829;50.798;4.358;2022-12-13T04:41:09;-2.10;99.90
7576;DHT22;3829;50.798;4.358;2022-12-13T04:43:37;-2.10;99.90
7576;DHT22;3829;50.798;4.358;2022-12-13T04:46:03;-2.20;99.90
7576;DHT22;3829;50.798;4.358;2022-12-13T04:48:28;-2.20;99.90
7576;DHT22;3829;50.798;4.358;2022-12-13T04:50:54;-2.20;99.90
7576;DHT22;3829;50.798;4.358;2022-12-13T04:53:19;-2.20;99.90
7576;DHT22;3829;50.798;4.358;2022-12-13T04:55:45;-2.20;99.90
7576;DHT22;3829;50.798;4.358;2022-12-13T04:58:10;-2.30;99.90
7576;DHT22;3829;50.798;4.358;2022-12-13T05:00:36;-2.30;99.90
7576;DHT22;3829;50.798;4.358;2022-12-13T05:03:04;-2.20;99.90
7576;DHT22;3829;50.798;4.358;2022-12-13T05:05:29;-2.30;99.90
7576;DHT22;3829;50.798;4.358;2022-12-13T05:07:55;-2.40;99.90
7576;DHT22;3829;50.798;4.358;2022-12-13T05:10:20;-2.30;99.90
7576;DHT22;3829;50.798;4.358;2022-12-13T05:12:46;-2.40;99.90
7576;DHT22;3829;50.798;4.358;2022-12-13T05:15:12;-2.40;99.90
7576;DHT22;3829;50.798;4.358;2022-12-13T05:17:37;-2.30;99.90
7576;DHT22;3829;50.798;4.358;2022-12-13T05:20:03;-2.40;99.90
7576;DHT22;3829;50.798;4.358;2022-12-13T05:22:29;-2.40;99.90
7576;DHT22;3829;50.798;4.358;2022-12-13T05:24:54;-2.50;99.90
7576;DHT22;3829;50.798;4.358;2022-12-13T05:27:20;-2.40;99.90
7576;DHT22;3829;50.798;4.358;2022-12-13T05:29:46;-2.50;99.90
7576;DHT22;3829;50.798;4.358;2022-12-13T05:32:11;-2.40;99.90
7576;DHT22;3829;50.798;4.358;2022-12-13T05:34:37;-2.50;99.90
7576;DHT22;3829;50.798;4.358;2022-12-13T05:37:02;-2.50;99.90
7576;DHT22;3829;50.798;4.358;2022-12-13T05:39:28;-2.60;99.90
7576;DHT22;3829;50.798;4.358;2022-12-13T05:41:54;-2.70;99.90
7576;DHT22;3829;50.798;4.358;2022-12-13T05:44:20;-2.60;99.90
7576;DHT22;3829;50.798;4.358;2022-12-13T05:46:46;-2.60;99.90
7576;DHT22;3829;50.798;4.358;2022-12-13T05:49:11;-2.70;99.90
7576;DHT22;3829;50.798;4.358;2022-12-13T05:51:37;-2.70;99.90
7576;DHT22;3829;50.798;4.358;2022-12-13T05:54:02;-2.60;99.90
7576;DHT22;3829;50.798;4.358;2022-12-13T05:56:28;-2.50;99.90
7576;DHT22;3829;50.798;4.358;2022-12-13T05:58:54;-2.60;99.90
7576;DHT22;3829;50.798;4.358;2022-12-13T06:01:19;-2.60;99.90
7576;DHT22;3829;50.798;4.358;2022-12-13T06:03:45;-2.70;99.90
7576;DHT22;3829;50.798;4.358;2022-12-13T06:06:14;-2.60;99.90
7576;DHT22;3829;50.798;4.358;2022-12-13T06:08:42;-2.70;99.90
7576;DHT22;3829;50.798;4.358;2022-12-13T06:11:08;-2.70;99.90
7576;DHT22;3829;50.798;4.358;2022-12-13T06:13:33;-2.70;99.90
7576;DHT22;3829;50.798;4.358;2022-12-13T06:16:01;-2.70;99.90
7576;DHT22;3829;50.798;4.358;2022-12-13T06:18:30;-2.60;99.90
7576;DHT22;3829;50.798;4.358;2022-12-13T06:21:01;-2.70;99.90
7576;DHT22;3829;50.798;4.358;2022-12-13T06:23:27;-2.70;99.90
7576;DHT22;3829;50.798;4.358;2022-12-13T06:25:53;-2.70;99.90
7576;DHT22;3829;50.798;4.358;2022-12-13T06:28:19;-2.70;99.90
7576;DHT22;3829;50.798;4.358;2022-12-13T06:30:45;-2.60;99.90
7576;DHT22;3829;50.798;4.358;2022-12-13T06:33:11;-2.90;99.90
7576;DHT22;3829;50.798;4.358;2022-12-13T06:35:37;-2.80;99.90
7576;DHT22;3829;50.798;4.358;2022-12-13T06:38:02;-2.70;99.90
7576;DHT22;3829;50.798;4.358;2022-12-13T06:40:29;-2.80;99.90
7576;DHT22;3829;50.798;4.358;2022-12-13T06:42:55;-2.90;99.90
7576;DHT22;3829;50.798;4.358;2022-12-13T06:45:20;-3.00;99.90
7576;DHT22;3829;50.798;4.358;2022-12-13T06:47:46;-2.90;99.90
7576;DHT22;3829;50.798;4.358;2022-12-13T06:50:11;-2.70;99.90
7576;DHT22;3829;50.798;4.358;2022-12-13T06:52:37;-2.70;99.90
7576;DHT22;3829;50.798;4.358;2022-12-13T06:55:03;-2.70;99.90
7576;DHT22;3829;50.798;4.358;2022-12-13T06:57:31;-2.80;99.90
7576;DHT22;3829;50.798;4.358;2022-12-13T06:59:58;-2.80;99.90
7576;DHT22;3829;50.798;4.358;2022-12-13T07:02:24;-2.80;99.90
7576;DHT22;3829;50.798;4.358;2022-12-13T07:04:49;-2.70;99.90
7576;DHT22;3829;50.798;4.358;2022-12-13T07:07:15;-2.80;99.90
7576;DHT22;3829;50.798;4.358;2022-12-13T07:09:41;-2.70;99.90
7576;DHT22;3829;50.798;4.358;2022-12-13T07:12:06;-2.70;99.90
7576;DHT22;3829;50.798;4.358;2022-12-13T07:14:32;-2.70;99.90
7576;DHT22;3829;50.798;4.358;2022-12-13T07:16:58;-2.80;99.90
7576;DHT22;3829;50.798;4.358;2022-12-13T07:19:24;-2.80;99.90
7576;DHT22;3829;50.798;4.358;2022-12-13T07:21:50;-2.80;99.90
7576;DHT22;3829;50.798;4.358;2022-12-13T07:24:15;-2.80;99.90
7576;DHT22;3829;50.798;4.358;2022-12-13T07:26:41;-2.80;99.90
7576;DHT22;3829;50.798;4.358;2022-12-13T07:29:06;-2.80;99.90
7576;DHT22;3829;50.798;4.358;2022-12-13T07:31:34;-2.80;99.90
7576;DHT22;3829;50.798;4.358;2022-12-13T07:34:01;-2.80;99.90
7576;DHT22;3829;50.798;4.358;2022-12-13T07:36:26;-2.80;99.90
7576;DHT22;3829;50.798;4.358;2022-12-13T07:38:55;-2.90;99.90
7576;DHT22;3829;50.798;4.358;2022-12-13T07:41:21;-2.90;99.90
7576;DHT22;3829;50.798;4.358;2022-12-13T07:43:47;-2.80;99.90
7576;DHT22;3829;50.798;4.358;2022-12-13T07:46:12;-2.80;99.90
7576;DHT22;3829;50.798;4.358;2022-12-13T07:48:38;-2.70;99.90
7576;DHT22;3829;50.798;4.358;2022-12-13T07:51:07;-2.70;99.90
7576;DHT22;3829;50.798;4.358;2022-12-13T07:53:33;-2.60;99.90
7576;DHT22;3829;50.798;4.358;2022-12-13T07:56:07;-2.50;99.90
7576;DHT22;3829;50.798;4.358;2022-12-13T07:58:33;-2.50;99.90
7576;DHT22;3829;50.798;4.358;2022-12-13T08:01:00;-2.50;99.90
7576;DHT22;3829;50.798;4.358;2022-12-13T08:03:27;-2.50;99.90
7576;DHT22;3829;50.798;4.358;2022-12-13T08:06:05;-2.50;99.90
7576;DHT22;3829;50.798;4.358;2022-12-13T08:08:31;-2.50;99.90
7576;DHT22;3829;50.798;4.358;2022-12-13T08:11:02;-2.50;99.90
7576;DHT22;3829;50.798;4.358;2022-12-13T08:13:28;-2.40;99.90
7576;DHT22;3829;50.798;4.358;2022-12-13T08:16:05;-2.30;99.90
7576;DHT22;3829;50.798;4.358;2022-12-13T08:18:31;-2.20;99.90
7576;DHT22;3829;50.798;4.358;2022-12-13T08:21:02;-2.10;99.90
7576;DHT22;3829;50.798;4.358;2022-12-13T08:23:30;-2.00;99.90
7576;DHT22;3829;50.798;4.358;2022-12-13T08:25:56;-2.00;99.90
7576;DHT22;3829;50.798;4.358;2022-12-13T08:28:23;-1.90;99.90
7576;DHT22;3829;50.798;4.358;2022-12-13T08:30:49;-1.90;99.90
7576;DHT22;3829;50.798;4.358;2022-12-13T08:33:15;-1.80;99.90
7576;DHT22;3829;50.798;4.358;2022-12-13T08:35:41;-1.60;99.90
7576;DHT22;3829;50.798;4.358;2022-12-13T08:38:07;-1.50;99.90
7576;DHT22;3829;50.798;4.358;2022-12-13T08:40:33;-1.50;99.90
7576;DHT22;3829;50.798;4.358;2022-12-13T08:42:59;-1.40;99.90
7576;DHT22;3829;50.798;4.358;2022-12-13T08:45:25;-1.30;99.90
7576;DHT22;3829;50.798;4.358;2022-12-13T08:47:52;-1.40;99.90
7576;DHT22;3829;50.798;4.358;2022-12-13T08:50:17;-1.30;99.90
7576;DHT22;3829;50.798;4.358;2022-12-13T08:52:43;-1.30;99.90
7576;DHT22;3829;50.798;4.358;2022-12-13T08:55:10;-1.30;99.90
7576;DHT22;3829;50.798;4.358;2022-12-13T08:57:37;-1.30;99.90
7576;DHT22;3829;50.798;4.358;2022-12-13T09:00:05;-1.30;99.90
7576;DHT22;3829;50.798;4.358;2022-12-13T09:02:30;-1.20;99.90
7576;DHT22;3829;50.798;4.358;2022-12-13T09:04:56;-1.10;99.90
7576;DHT22;3829;50.798;4.358;2022-12-13T09:07:22;-1.10;99.90
7576;DHT22;3829;50.798;4.358;2022-12-13T09:09:47;-1.00;99.90
7576;DHT22;3829;50.798;4.358;2022-12-13T09:12:13;-1.00;99.90
7576;DHT22;3829;50.798;4.358;2022-12-13T09:14:38;-0.90;99.90
7576;DHT22;3829;50.798;4.358;2022-12-13T09:17:04;-0.90;99.90
7576;DHT22;3829;50.798;4.358;2022-12-13T09:19:30;-0.80;99.90
7576;DHT22;3829;50.798;4.358;2022-12-13T09:21:55;-0.90;99.90
7576;DHT22;3829;50.798;4.358;2022-12-13T09:24:21;-0.90;99.90
7576;DHT22;3829;50.798;4.358;2022-12-13T09:26:46;-0.80;99.90
7576;DHT22;3829;50.798;4.358;2022-12-13T09:29:12;-0.80;99.90
7576;DHT22;3829;50.798;4.358;2022-12-13T09:31:41;-0.70;99.90
7576;DHT22;3829;50.798;4.358;2022-12-13T09:34:07;-0.40;99.90
7576;DHT22;3829;50.798;4.358;2022-12-13T09:36:33;-0.10;99.90
7576;DHT22;3829;50.798;4.358;2022-12-13T09:38:58;0.10;99.90
7576;DHT22;3829;50.798;4.358;2022-12-13T09:41:31;0.20;99.90
7576;DHT22;3829;50.798;4.358;2022-12-13T09:44:34;0.00;99.90
7576;DHT22;3829;50.798;4.358;2022-12-13T09:47:02;0.00;99.90
7576;DHT22;3829;50.798;4.358;2022-12-13T09:49:34;-0.10;99.90
7576;DHT22;3829;50.798;4.358;2022-12-13T09:52:04;-0.10;99.90
7576;DHT22;3829;50.798;4.358;2022-12-13T09:54:30;0.00;99.90
7576;DHT22;3829;50.798;4.358;2022-12-13T09:56:57;0.00;99.90
7576;DHT22;3829;50.798;4.358;2022-12-13T09:59:28;0.20;99.90
7576;DHT22;3829;50.798;4.358;2022-12-13T10:01:55;0.20;99.90
7576;DHT22;3829;50.798;4.358;2022-12-13T10:04:22;0.30;99.90
7576;DHT22;3829;50.798;4.358;2022-12-13T10:06:51;0.30;99.90
7576;DHT22;3829;50.798;4.358;2022-12-13T10:09:18;0.30;99.90
7576;DHT22;3829;50.798;4.358;2022-12-13T10:11:52;0.30;99.90
7576;DHT22;3829;50.798;4.358;2022-12-13T10:14:24;0.30;99.90
7576;DHT22;3829;50.798;4.358;2022-12-13T10:16:54;0.20;99.90
7576;DHT22;3829;50.798;4.358;2022-12-13T10:21:51;0.20;99.90
7576;DHT22;3829;50.798;4.358;2022-12-13T10:24:24;0.20;99.90
7576;DHT22;3829;50.798;4.358;2022-12-13T10:26:52;0.20;99.90
7576;DHT22;3829;50.798;4.358;2022-12-13T10:29:18;0.20;99.90
7576;DHT22;3829;50.798;4.358;2022-12-13T10:31:46;0.30;99.90
7576;DHT22;3829;50.798;4.358;2022-12-13T10:34:25;0.40;99.90
7576;DHT22;3829;50.798;4.358;2022-12-13T10:36:51;0.30;99.90
7576;DHT22;3829;50.798;4.358;2022-12-13T10:39:36;0.40;99.90
7576;DHT22;3829;50.798;4.358;2022-12-13T10:42:04;0.40;99.90
7576;DHT22;3829;50.798;4.358;2022-12-13T10:44:31;0.30;99.90
7576;DHT22;3829;50.798;4.358;2022-12-13T10:47:15;0.30;99.90
7576;DHT22;3829;50.798;4.358;2022-12-13T10:52:24;0.50;99.90
7576;DHT22;3829;50.798;4.358;2022-12-13T10:54:51;0.50;99.90
7576;DHT22;3829;50.798;4.358;2022-12-13T10:57:18;0.50;99.90
7576;DHT22;3829;50.798;4.358;2022-12-13T10:59:46;0.50;99.90
7576;DHT22;3829;50.798;4.358;2022-12-13T11:04:53;0.40;99.90
7576;DHT22;3829;50.798;4.358;2022-12-13T11:07:23;0.40;99.90
7576;DHT22;3829;50.798;4.358;2022-12-13T11:09:49;0.40;99.90
7576;DHT22;3829;50.798;4.358;2022-12-13T11:12:19;0.50;99.90
7576;DHT22;3829;50.798;4.358;2022-12-13T11:15:02;0.50;99.90
7576;DHT22;3829;50.798;4.358;2022-12-13T11:17:31;0.50;99.90
7576;DHT22;3829;50.798;4.358;2022-12-13T11:20:05;0.60;99.90
7576;DHT22;3829;50.798;4.358;2022-12-13T11:22:34;0.60;99.90
7576;DHT22;3829;50.798;4.358;2022-12-13T11:25:02;0.60;99.90
7576;DHT22;3829;50.798;4.358;2022-12-13T11:28:01;0.70;99.90
7576;DHT22;3829;50.798;4.358;2022-12-13T11:30:45;0.70;99.90
7576;DHT22;3829;50.798;4.358;2022-12-13T11:33:41;0.80;99.90
7576;DHT22;3829;50.798;4.358;2022-12-13T11:39:20;0.90;99.90
7576;DHT22;3829;50.798;4.358;2022-12-13T11:41:51;1.10;99.90
7576;DHT22;3829;50.798;4.358;2022-12-13T11:44:25;1.00;99.90
7576;DHT22;3829;50.798;4.358;2022-12-13T11:46:57;0.90;99.90
7576;DHT22;3829;50.798;4.358;2022-12-13T11:49:37;1.00;99.90
7576;DHT22;3829;50.798;4.358;2022-12-13T11:55:23;1.10;99.90
7576;DHT22;3829;50.798;4.358;2022-12-13T11:58:05;1.20;99.90
7576;DHT22;3829;50.798;4.358;2022-12-13T12:00:38;1.20;99.90
7576;DHT22;3829;50.798;4.358;2022-12-13T12:03:22;1.30;99.90
7576;DHT22;3829;50.798;4.358;2022-12-13T12:05:56;1.30;99.90
7576;DHT22;3829;50.798;4.358;2022-12-13T12:08:39;1.40;99.90
7576;DHT22;3829;50.798;4.358;2022-12-13T12:13:58;1.60;99.90
7576;DHT22;3829;50.798;4.358;2022-12-13T12:16:52;1.60;99.90
7576;DHT22;3829;50.798;4.358;2022-12-13T12:19:24;1.60;99.90
7576;DHT22;3829;50.798;4.358;2022-12-13T12:25:02;1.70;99.90
7576;DHT22;3829;50.798;4.358;2022-12-13T12:30:19;1.90;99.90
7576;DHT22;3829;50.798;4.358;2022-12-13T12:38:30;1.80;99.90
7576;DHT22;3829;50.798;4.358;2022-12-13T12:41:15;1.70;99.90
7576;DHT22;3829;50.798;4.358;2022-12-13T12:43:44;1.80;99.90
7576;DHT22;3829;50.798;4.358;2022-12-13T12:51:48;1.90;99.90
7576;DHT22;3829;50.798;4.358;2022-12-13T12:54:38;1.90;99.90
7576;DHT22;3829;50.798;4.358;2022-12-13T12:59:50;1.80;99.90
7576;DHT22;3829;50.798;4.358;2022-12-13T13:02:27;1.90;99.90
7576;DHT22;3829;50.798;4.358;2022-12-13T13:05:02;1.90;99.90
7576;DHT22;3829;50.798;4.358;2022-12-13T13:07:41;1.80;99.90
7576;DHT22;3829;50.798;4.358;2022-12-13T13:10:09;1.80;99.90
7576;DHT22;3829;50.798;4.358;2022-12-13T13:12:38;1.70;99.90
7576;DHT22;3829;50.798;4.358;2022-12-13T13:18:03;1.80;99.90
7576;DHT22;3829;50.798;4.358;2022-12-13T13:20:28;1.80;99.90
7576;DHT22;3829;50.798;4.358;2022-12-13T13:22:55;1.90;99.90
7576;DHT22;3829;50.798;4.358;2022-12-13T13:25:28;1.90;99.90
7576;DHT22;3829;50.798;4.358;2022-12-13T13:28:17;1.80;99.90
7576;DHT22;3829;50.798;4.358;2022-12-13T13:31:11;1.70;99.90
7576;DHT22;3829;50.798;4.358;2022-12-13T13:33:48;1.60;99.90
7576;DHT22;3829;50.798;4.358;2022-12-13T13:39:51;1.40;99.90
7576;DHT22;3829;50.798;4.358;2022-12-13T13:42:20;1.20;99.90
7576;DHT22;3829;50.798;4.358;2022-12-13T13:52:19;1.20;99.90
7576;DHT22;3829;50.798;4.358;2022-12-13T14:00:27;1.30;99.90
7576;DHT22;3829;50.798;4.358;2022-12-13T14:06:28;1.20;99.90
7576;DHT22;3829;50.798;4.358;2022-12-13T14:15:16;1.20;99.90
7576;DHT22;3829;50.798;4.358;2022-12-13T14:21:07;1.20;99.90
7576;DHT22;3829;50.798;4.358;2022-12-13T14:29:15;1.10;99.90
7576;DHT22;3829;50.798;4.358;2022-12-13T14:31:44;1.10;99.90
7576;DHT22;3829;50.798;4.358;2022-12-13T14:34:28;1.00;99.90
7576;DHT22;3829;50.798;4.358;2022-12-13T14:37:01;1.00;99.90
7576;DHT22;3829;50.798;4.358;2022-12-13T14:39:28;0.90;99.90
7576;DHT22;3829;50.798;4.358;2022-12-13T14:41:56;0.90;99.90
7576;DHT22;3829;50.798;4.358;2022-12-13T14:44:31;0.70;99.90
7576;DHT22;3829;50.798;4.358;2022-12-13T14:49:26;0.50;99.90
7576;DHT22;3829;50.798;4.358;2022-12-13T14:52:02;0.50;99.90
7576;DHT22;3829;50.798;4.358;2022-12-13T14:57:23;0.40;99.90
7576;DHT22;3829;50.798;4.358;2022-12-13T14:59:51;0.40;99.90
7576;DHT22;3829;50.798;4.358;2022-12-13T15:02:23;0.30;99.90
7576;DHT22;3829;50.798;4.358;2022-12-13T15:04:53;0.30;99.90
7576;DHT22;3829;50.798;4.358;2022-12-13T15:07:23;0.20;99.90
7576;DHT22;3829;50.798;4.358;2022-12-13T15:09:57;0.20;99.90
7576;DHT22;3829;50.798;4.358;2022-12-13T15:12:25;0.20;99.90
7576;DHT22;3829;50.798;4.358;2022-12-13T15:14:59;0.10;99.90
7576;DHT22;3829;50.798;4.358;2022-12-13T15:17:35;0.20;99.90
7576;DHT22;3829;50.798;4.358;2022-12-13T15:22:45;0.20;99.90
7576;DHT22;3829;50.798;4.358;2022-12-13T15:25:12;0.20;99.90
7576;DHT22;3829;50.798;4.358;2022-12-13T15:27:40;0.20;99.90
7576;DHT22;3829;50.798;4.358;2022-12-13T15:30:11;0.30;99.90
7576;DHT22;3829;50.798;4.358;2022-12-13T15:33:00;0.20;99.90
7576;DHT22;3829;50.798;4.358;2022-12-13T15:35:26;0.20;99.90
7576;DHT22;3829;50.798;4.358;2022-12-13T15:37:52;0.10;99.90
7576;DHT22;3829;50.798;4.358;2022-12-13T15:40:18;0.10;99.90
7576;DHT22;3829;50.798;4.358;2022-12-13T15:42:44;0.10;99.90
7576;DHT22;3829;50.798;4.358;2022-12-13T15:45:20;0.00;99.90
7576;DHT22;3829;50.798;4.358;2022-12-13T15:47:47;0.00;99.90
7576;DHT22;3829;50.798;4.358;2022-12-13T15:50:35;-0.10;99.90
7576;DHT22;3829;50.798;4.358;2022-12-13T15:53:04;-0.10;99.90
7576;DHT22;3829;50.798;4.358;2022-12-13T15:55:33;-0.20;99.90
7576;DHT22;3829;50.798;4.358;2022-12-13T15:57:59;-0.10;99.90
7576;DHT22;3829;50.798;4.358;2022-12-13T16:00:28;-0.20;99.90
7576;DHT22;3829;50.798;4.358;2022-12-13T16:03:07;-0.20;99.90
7576;DHT22;3829;50.798;4.358;2022-12-13T16:05:50;-0.20;99.90
7576;DHT22;3829;50.798;4.358;2022-12-13T16:08:26;-0.30;99.90
7576;DHT22;3829;50.798;4.358;2022-12-13T16:10:53;-0.20;99.90
7576;DHT22;3829;50.798;4.358;2022-12-13T16:13:26;-0.30;99.90
7576;DHT22;3829;50.798;4.358;2022-12-13T16:15:55;-0.20;99.90
7576;DHT22;3829;50.798;4.358;2022-12-13T16:18:24;-0.20;99.90
7576;DHT22;3829;50.798;4.358;2022-12-13T16:20:52;-0.20;99.90
7576;DHT22;3829;50.798;4.358;2022-12-13T16:23:17;-0.20;99.90
7576;DHT22;3829;50.798;4.358;2022-12-13T16:25:43;-0.20;99.90
7576;DHT22;3829;50.798;4.358;2022-12-13T16:28:11;-0.20;99.90
7576;DHT22;3829;50.798;4.358;2022-12-13T16:35:44;-0.20;99.90
7576;DHT22;3829;50.798;4.358;2022-12-13T16:38:13;-0.30;99.90
7576;DHT22;3829;50.798;4.358;2022-12-13T16:40:39;-0.20;99.90
7576;DHT22;3829;50.798;4.358;2022-12-13T16:43:06;-0.30;99.90
7576;DHT22;3829;50.798;4.358;2022-12-13T16:45:41;-0.30;99.90
7576;DHT22;3829;50.798;4.358;2022-12-13T16:48:11;-0.30;99.90
7576;DHT22;3829;50.798;4.358;2022-12-13T16:50:40;-0.30;99.90
7576;DHT22;3829;50.798;4.358;2022-12-13T16:53:06;-0.20;99.90
7576;DHT22;3829;50.798;4.358;2022-12-13T16:55:32;-0.20;99.90
7576;DHT22;3829;50.798;4.358;2022-12-13T16:57:59;-0.30;99.90
7576;DHT22;3829;50.798;4.358;2022-12-13T17:00:26;-0.30;99.90
7576;DHT22;3829;50.798;4.358;2022-12-13T17:02:53;-0.30;99.90
7576;DHT22;3829;50.798;4.358;2022-12-13T17:05:19;-0.20;99.90
7576;DHT22;3829;50.798;4.358;2022-12-13T17:07:45;-0.20;99.90
7576;DHT22;3829;50.798;4.358;2022-12-13T17:10:11;-0.20;99.90
7576;DHT22;3829;50.798;4.358;2022-12-13T17:12:37;-0.20;99.90
7576;DHT22;3829;50.798;4.358;2022-12-13T17:15:03;-0.20;99.90
7576;DHT22;3829;50.798;4.358;2022-12-13T17:17:29;-0.20;99.90
7576;DHT22;3829;50.798;4.358;2022-12-13T17:19:54;-0.20;99.90
7576;DHT22;3829;50.798;4.358;2022-12-13T17:22:20;-0.30;99.90
7576;DHT22;3829;50.798;4.358;2022-12-13T17:24:45;-0.30;99.90
7576;DHT22;3829;50.798;4.358;2022-12-13T17:27:11;-0.20;99.90
7576;DHT22;3829;50.798;4.358;2022-12-13T17:29:38;-0.20;99.90
7576;DHT22;3829;50.798;4.358;2022-12-13T17:32:04;-0.30;99.90
7576;DHT22;3829;50.798;4.358;2022-12-13T17:34:29;-0.30;99.90
7576;DHT22;3829;50.798;4.358;2022-12-13T17:36:55;-0.30;99.90
7576;DHT22;3829;50.798;4.358;2022-12-13T17:39:21;-0.40;99.90
7576;DHT22;3829;50.798;4.358;2022-12-13T17:41:47;-0.40;99.90
7576;DHT22;3829;50.798;4.358;2022-12-13T17:44:12;-0.40;99.90
7576;DHT22;3829;50.798;4.358;2022-12-13T17:46:38;-0.50;99.90
7576;DHT22;3829;50.798;4.358;2022-12-13T17:49:04;-0.50;99.90
7576;DHT22;3829;50.798;4.358;2022-12-13T17:51:29;-0.50;99.90
7576;DHT22;3829;50.798;4.358;2022-12-13T17:53:55;-0.50;99.90
7576;DHT22;3829;50.798;4.358;2022-12-13T17:56:20;-0.60;99.90
7576;DHT22;3829;50.798;4.358;2022-12-13T17:58:46;-0.60;99.90
7576;DHT22;3829;50.798;4.358;2022-12-13T18:01:14;-0.60;99.90
7576;DHT22;3829;50.798;4.358;2022-12-13T18:03:41;-0.60;99.90